createdAt,value
2023-04-02T00:02:26.320Z,100.00
2023-04-02T00:05:30.660Z,100.00
2023-04-02T00:08:20.799Z,100.00
2023-04-02T00:10:50.879Z,100.00
2023-04-02T00:13:17.396Z,100.00
2023-04-02T00:15:49.549Z,100.00
2023-04-02T00:18:22.281Z,100.00
2023-04-02T00:20:52.916Z,100.00
2023-04-02T00:23:20.049Z,100.00
2023-04-02T00:25:47.395Z,100.00
2023-04-02T00:28:20.690Z,100.00
2023-04-02T00:30:53.145Z,100.00
2023-04-02T00:33:22.891Z,100.00
2023-04-02T00:35:51.189Z,100.00
2023-04-02T00:38:30.396Z,100.00
2023-04-02T00:41:00.662Z,100.00
2023-04-02T00:43:30.809Z,100.00
2023-04-02T00:46:01.524Z,100.00
2023-04-02T00:48:31.505Z,100.00
2023-04-02T00:53:49.218Z,100.00
2023-04-02T00:56:28.018Z,100.00
2023-04-02T00:58:56.841Z,100.00
2023-04-02T01:01:27.614Z,100.00
2023-04-02T01:04:06.810Z,100.00
2023-04-02T01:06:38.911Z,100.00
2023-04-02T01:09:31.546Z,100.00
2023-04-02T01:12:15.026Z,100.00
2023-04-02T01:14:56.920Z,100.00
2023-04-02T01:17:39.048Z,100.00
2023-04-02T01:20:27.183Z,100.00
2023-04-02T01:23:17.143Z,100.00
2023-04-02T01:25:54.105Z,100.00
2023-04-02T01:28:29.647Z,100.00
2023-04-02T01:30:58.989Z,100.00
2023-04-02T01:33:30.627Z,100.00
2023-04-02T01:36:09.807Z,100.00
2023-04-02T01:38:50.515Z,100.00
2023-04-02T01:41:33.629Z,100.00
2023-04-02T01:44:14.449Z,100.00
2023-04-02T01:46:43.330Z,100.00
2023-04-02T01:49:18.175Z,100.00
2023-04-02T01:51:47.473Z,100.00
2023-04-02T01:54:16.923Z,100.00
2023-04-02T01:56:45.857Z,100.00
2023-04-02T01:59:14.566Z,100.00
2023-04-02T02:01:48.679Z,100.00
2023-04-02T02:04:16.945Z,100.00
2023-04-02T02:06:44.000Z,100.00
2023-04-02T02:09:17.988Z,100.00
2023-04-02T02:11:44.685Z,100.00
2023-04-02T02:14:20.841Z,100.00
2023-04-02T02:16:48.513Z,100.00
2023-04-02T02:19:42.735Z,100.00
2023-04-02T02:22:24.211Z,100.00
2023-04-02T02:24:51.516Z,100.00
2023-04-02T02:27:24.053Z,100.00
2023-04-02T02:30:12.428Z,100.00
2023-04-02T02:32:51.830Z,100.00
2023-04-02T02:35:27.273Z,100.00
2023-04-02T02:38:06.626Z,100.00
2023-04-02T02:40:45.645Z,100.00
2023-04-02T02:43:14.798Z,100.00
2023-04-02T02:45:43.309Z,100.00
2023-04-02T02:48:17.033Z,100.00
2023-04-02T02:50:44.907Z,100.00
2023-04-02T02:53:22.682Z,100.00
2023-04-02T02:55:53.951Z,100.00
2023-04-02T02:58:27.579Z,100.00
2023-04-02T03:00:54.493Z,100.00
2023-04-02T03:03:28.223Z,100.00
2023-04-02T03:06:03.538Z,100.00
2023-04-02T03:08:37.271Z,100.00
2023-04-02T03:11:14.565Z,100.00
2023-04-02T03:13:47.539Z,100.00
2023-04-02T03:16:23.205Z,100.00
2023-04-02T03:19:25.131Z,100.00
2023-04-02T03:22:03.593Z,100.00
2023-04-02T03:24:38.118Z,100.00
2023-04-02T03:27:20.526Z,100.00
2023-04-02T03:30:03.325Z,100.00
2023-04-02T03:32:35.034Z,100.00
2023-04-02T03:35:10.867Z,100.00
2023-04-02T03:37:47.305Z,100.00
2023-04-02T03:40:29.255Z,100.00
2023-04-02T03:43:02.742Z,100.00
2023-04-02T03:45:36.727Z,100.00
2023-04-02T03:48:12.387Z,100.00
2023-04-02T03:50:47.672Z,100.00
2023-04-02T03:53:14.268Z,100.00
2023-04-02T03:55:42.760Z,100.00
2023-04-02T03:58:20.168Z,100.00
2023-04-02T04:01:03.421Z,100.00
2023-04-02T04:03:41.991Z,100.00
2023-04-02T04:06:24.149Z,100.00
2023-04-02T04:08:56.068Z,100.00
2023-04-02T04:11:30.162Z,100.00
2023-04-02T04:14:19.890Z,100.00
2023-04-02T04:16:56.567Z,100.00
2023-04-02T04:19:55.099Z,100.00
2023-04-02T04:22:34.161Z,100.00
2023-04-02T04:25:03.199Z,100.00
2023-04-02T04:27:42.851Z,100.00
2023-04-02T04:30:27.489Z,100.00
2023-04-02T04:32:58.623Z,100.00
2023-04-02T04:35:31.405Z,100.00
2023-04-02T04:38:04.940Z,100.00
2023-04-02T04:40:38.163Z,100.00
2023-04-02T04:43:12.587Z,100.00
2023-04-02T04:45:45.051Z,100.00
2023-04-02T04:49:02.314Z,100.00
2023-04-02T04:51:45.350Z,100.00
2023-04-02T04:54:16.300Z,100.00
2023-04-02T04:56:55.266Z,100.00
2023-04-02T04:59:27.554Z,100.00
2023-04-02T05:02:12.589Z,100.00
2023-04-02T05:04:42.657Z,100.00
2023-04-02T05:07:36.491Z,100.00
2023-04-02T05:10:27.800Z,100.00
2023-04-02T05:13:19.764Z,100.00
2023-04-02T05:15:50.791Z,100.00
2023-04-02T05:18:37.022Z,100.00
2023-04-02T05:21:14.185Z,100.00
2023-04-02T05:24:04.545Z,100.00
2023-04-02T05:26:39.355Z,100.00
2023-04-02T05:29:19.192Z,100.00
2023-04-02T05:31:58.958Z,100.00
2023-04-02T05:34:30.028Z,100.00
2023-04-02T05:36:56.837Z,100.00
2023-04-02T05:39:25.477Z,100.00
2023-04-02T05:42:04.849Z,100.00
2023-04-02T05:44:35.026Z,100.00
2023-04-02T05:47:10.286Z,100.00
2023-04-02T05:49:49.483Z,100.00
2023-04-02T05:52:23.638Z,100.00
2023-04-02T05:55:11.537Z,100.00
2023-04-02T05:57:52.875Z,100.00
2023-04-02T06:00:40.259Z,100.00
2023-04-02T06:03:24.370Z,100.00
2023-04-02T06:05:53.208Z,100.00
2023-04-02T06:08:24.922Z,100.00
2023-04-02T06:10:58.844Z,100.00
2023-04-02T06:13:25.964Z,100.00
2023-04-02T06:15:52.522Z,100.00
2023-04-02T06:18:23.588Z,100.00
2023-04-02T06:20:50.329Z,100.00
2023-04-02T06:23:22.190Z,100.00
2023-04-02T06:26:08.042Z,100.00
2023-04-02T06:28:43.264Z,100.00
2023-04-02T06:31:23.382Z,100.00
2023-04-02T06:33:52.554Z,100.00
2023-04-02T06:36:20.660Z,100.00
2023-04-02T06:38:49.394Z,100.00
2023-04-02T06:41:21.709Z,100.00
2023-04-02T06:43:55.552Z,100.00
2023-04-02T06:46:38.010Z,100.00
2023-04-02T06:49:22.151Z,100.00
2023-04-02T06:51:53.196Z,100.00
2023-04-02T06:54:21.217Z,100.00
2023-04-02T06:56:51.637Z,100.00
2023-04-02T06:59:19.683Z,100.00
2023-04-02T07:01:57.561Z,100.00
2023-04-02T07:04:24.839Z,100.00
2023-04-02T07:06:51.538Z,100.00
2023-04-02T07:09:18.148Z,100.00
2023-04-02T07:11:44.950Z,100.00
2023-04-02T07:14:13.258Z,100.00
2023-04-02T07:16:42.693Z,100.00
2023-04-02T07:19:18.391Z,100.00
2023-04-02T07:21:45.210Z,100.00
2023-04-02T07:24:12.107Z,100.00
2023-04-02T07:26:38.958Z,100.00
2023-04-02T07:29:09.914Z,100.00
2023-04-02T07:31:39.271Z,100.00
2023-04-02T07:34:07.190Z,100.00
2023-04-02T07:36:33.940Z,100.00
2023-04-02T07:39:01.049Z,100.00
2023-04-02T07:41:27.736Z,100.00
2023-04-02T07:43:54.302Z,100.00
2023-04-02T07:46:21.004Z,100.00
2023-04-02T07:48:47.822Z,100.00
2023-04-02T07:51:19.318Z,100.00
2023-04-02T07:53:50.558Z,100.00
2023-04-02T07:56:19.827Z,100.00
2023-04-02T07:58:47.132Z,100.00
2023-04-02T08:01:26.601Z,100.00
2023-04-02T08:03:57.744Z,100.00
2023-04-02T08:06:25.443Z,100.00
2023-04-02T08:08:52.436Z,100.00
2023-04-02T08:11:19.150Z,100.00
2023-04-02T08:13:45.836Z,100.00
2023-04-02T08:16:12.678Z,100.00
2023-04-02T08:18:39.519Z,100.00
2023-04-02T08:21:08.898Z,100.00
2023-04-02T08:23:37.233Z,100.00
2023-04-02T08:26:04.576Z,100.00
2023-04-02T08:28:31.144Z,100.00
2023-04-02T08:30:57.791Z,100.00
2023-04-02T08:33:24.442Z,100.00
2023-04-02T08:35:51.337Z,100.00
2023-04-02T08:38:20.040Z,100.00
2023-04-02T08:40:50.604Z,100.00
2023-04-02T08:43:28.963Z,100.00
2023-04-02T08:46:07.893Z,100.00
2023-04-02T08:48:40.831Z,100.00
2023-04-02T08:51:22.118Z,100.00
2023-04-02T08:53:49.451Z,100.00
2023-04-02T08:56:24.233Z,100.00
2023-04-02T08:58:56.163Z,100.00
2023-04-02T09:01:41.729Z,100.00
2023-04-02T09:04:19.052Z,99.37
2023-04-02T09:06:47.301Z,99.67
2023-04-02T09:09:15.291Z,98.09
2023-04-02T09:11:43.999Z,97.29
2023-04-02T09:14:18.159Z,96.95
2023-04-02T09:17:01.199Z,96.81
2023-04-02T09:19:40.525Z,97.37
2023-04-02T09:22:22.951Z,96.79
2023-04-02T09:24:57.851Z,97.86
2023-04-02T09:27:31.177Z,97.15
2023-04-02T09:30:11.097Z,95.97
2023-04-02T09:32:46.638Z,96.47
2023-04-02T09:35:26.272Z,95.37
2023-04-02T09:38:21.955Z,92.27
2023-04-02T09:40:54.745Z,93.31
2023-04-02T09:43:24.798Z,94.69
2023-04-02T09:46:02.465Z,95.25
2023-04-02T09:48:39.293Z,92.58
2023-04-02T09:51:08.291Z,92.10
2023-04-02T09:53:37.589Z,91.35
2023-04-02T09:56:19.556Z,91.18
2023-04-02T09:59:03.353Z,91.88
2023-04-02T10:01:32.179Z,87.86
2023-04-02T10:04:00.203Z,84.24
2023-04-02T10:06:29.401Z,82.30
2023-04-02T10:08:56.654Z,81.64
2023-04-02T10:11:43.697Z,81.31
2023-04-02T10:14:38.436Z,80.68
2023-04-02T10:17:17.335Z,81.13
2023-04-02T10:19:50.714Z,77.95
2023-04-02T10:22:19.650Z,78.88
2023-04-02T10:24:46.519Z,79.79
2023-04-02T10:27:43.425Z,79.53
2023-04-02T10:30:13.792Z,79.54
2023-04-02T10:32:50.488Z,81.50
2023-04-02T10:35:28.208Z,84.99
2023-04-02T10:38:24.687Z,85.42
2023-04-02T10:41:01.035Z,81.48
2023-04-02T10:43:45.786Z,76.73
2023-04-02T10:46:36.890Z,71.47
2023-04-02T10:49:27.821Z,61.31
2023-04-02T10:52:21.350Z,55.96
2023-04-02T10:54:51.285Z,47.55
2023-04-02T10:57:48.550Z,42.11
2023-04-02T11:00:22.815Z,45.51
2023-04-02T11:03:02.492Z,43.64
2023-04-02T11:05:44.420Z,38.25
2023-04-02T11:08:11.090Z,32.31
2023-04-02T11:10:44.724Z,31.12
2023-04-02T11:13:26.914Z,29.32
2023-04-02T11:15:54.204Z,28.97
2023-04-02T11:18:38.720Z,26.46
2023-04-02T11:21:07.875Z,28.77
2023-04-02T11:23:57.243Z,27.97
2023-04-02T11:26:35.076Z,28.32
2023-04-02T11:29:14.128Z,27.03
2023-04-02T11:31:42.840Z,30.45
2023-04-02T11:34:41.282Z,30.11
2023-04-02T11:37:30.976Z,28.67
2023-04-02T11:39:59.881Z,28.72
2023-04-02T11:42:35.115Z,26.09
2023-04-02T11:45:22.203Z,25.57
2023-04-02T11:48:01.341Z,25.99
2023-04-02T11:50:33.774Z,26.72
2023-04-02T11:53:12.597Z,28.85
2023-04-02T11:55:42.221Z,30.86
2023-04-02T11:58:22.917Z,30.02
2023-04-02T12:00:52.452Z,30.60
2023-04-02T12:03:51.516Z,32.96
2023-04-02T12:06:48.965Z,33.00
2023-04-02T12:09:24.550Z,33.00
2023-04-02T12:11:53.906Z,31.74
2023-04-02T12:14:38.485Z,33.37
2023-04-02T12:17:15.902Z,33.28
2023-04-02T12:19:48.440Z,32.01
2023-04-02T12:22:27.990Z,28.27
2023-04-02T12:24:58.893Z,27.92
2023-04-02T12:27:29.449Z,30.53
2023-04-02T12:30:12.049Z,31.48
2023-04-02T12:32:38.788Z,29.44
2023-04-02T12:35:06.422Z,29.43
2023-04-02T12:37:33.211Z,27.75
2023-04-02T12:40:07.233Z,27.35
2023-04-02T12:42:36.389Z,27.10
2023-04-02T12:45:05.656Z,29.90
2023-04-02T12:47:33.119Z,33.57
2023-04-02T12:50:01.556Z,32.41
2023-04-02T12:52:29.887Z,30.37
2023-04-02T12:55:03.633Z,29.63
2023-04-02T12:57:30.291Z,28.87
2023-04-02T13:00:22.746Z,30.01
2023-04-02T13:03:09.371Z,29.47
2023-04-02T13:05:41.336Z,29.77
2023-04-02T13:08:17.142Z,30.51
2023-04-02T13:10:44.835Z,29.17
2023-04-02T13:13:20.366Z,27.34
2023-04-02T13:16:01.226Z,27.80
2023-04-02T13:18:27.928Z,27.55
2023-04-02T13:21:03.513Z,26.63
2023-04-02T13:23:30.077Z,27.86
2023-04-02T13:26:13.432Z,28.16
2023-04-02T13:28:40.233Z,28.02
2023-04-02T13:31:08.868Z,25.87
2023-04-02T13:33:35.433Z,25.09
2023-04-02T13:36:02.153Z,25.41
2023-04-02T13:38:28.864Z,24.73
2023-04-02T13:40:55.563Z,25.13
2023-04-02T13:43:22.250Z,23.85
2023-04-02T13:45:54.537Z,22.65
2023-04-02T13:48:24.773Z,22.58
2023-04-02T13:50:53.610Z,25.09
2023-04-02T13:53:31.831Z,23.35
2023-04-02T13:55:58.742Z,23.99
2023-04-02T13:58:25.760Z,23.29
2023-04-02T14:00:52.780Z,22.79
2023-04-02T14:03:22.258Z,22.79
2023-04-02T14:06:09.188Z,21.74
2023-04-02T14:08:54.485Z,22.77
2023-04-02T14:11:42.650Z,22.28
2023-04-02T14:14:47.071Z,23.09
2023-04-02T14:17:47.768Z,24.38
2023-04-02T14:20:54.375Z,25.12
2023-04-02T14:23:30.558Z,26.98
2023-04-02T14:26:27.545Z,26.13
2023-04-02T14:28:59.201Z,28.66
2023-04-02T14:31:42.071Z,29.92
2023-04-02T14:34:28.854Z,30.05
2023-04-02T14:37:13.948Z,30.16
2023-04-02T14:40:01.771Z,34.80
2023-04-02T14:42:37.637Z,35.81
2023-04-02T14:45:16.939Z,30.98
2023-04-02T14:47:51.994Z,30.73
2023-04-02T14:50:41.699Z,34.06
2023-04-02T14:53:26.613Z,37.40
2023-04-02T14:55:54.993Z,37.13
2023-04-02T14:58:37.378Z,34.73
2023-04-02T15:01:13.999Z,35.20
2023-04-02T15:03:47.339Z,36.97
2023-04-02T15:06:23.624Z,38.30
2023-04-02T15:09:09.479Z,41.13
2023-04-02T15:11:40.653Z,41.02
2023-04-02T15:14:17.631Z,34.26
2023-04-02T15:16:45.222Z,33.41
2023-04-02T15:19:18.947Z,33.05
2023-04-02T15:21:57.494Z,31.07
2023-04-02T15:24:46.469Z,28.19
2023-04-02T15:27:33.049Z,27.52
2023-04-02T15:30:13.237Z,30.33
2023-04-02T15:32:41.977Z,34.51
2023-04-02T15:35:20.544Z,38.47
2023-04-02T15:38:15.750Z,35.09
2023-04-02T15:41:01.842Z,32.27
2023-04-02T15:43:38.390Z,28.41
2023-04-02T15:46:17.342Z,27.06
2023-04-02T15:49:02.395Z,26.05
2023-04-02T15:51:43.601Z,31.31
2023-04-02T15:54:19.789Z,34.48
2023-04-02T15:57:19.880Z,37.25
2023-04-02T16:00:14.876Z,41.37
2023-04-02T16:03:21.055Z,45.00
2023-04-02T16:05:50.931Z,48.89
2023-04-02T16:08:26.622Z,50.69
2023-04-02T16:10:53.260Z,52.71
2023-04-02T16:13:29.154Z,54.24
2023-04-02T16:16:03.675Z,60.23
2023-04-02T16:18:45.162Z,59.11
2023-04-02T16:21:19.136Z,62.79
2023-04-02T16:23:45.835Z,63.90
2023-04-02T16:26:37.333Z,65.04
2023-04-02T16:29:29.411Z,65.54
2023-04-02T16:32:05.974Z,64.51
2023-04-02T16:34:50.068Z,61.91
2023-04-02T16:37:38.664Z,63.71
2023-04-02T16:40:21.096Z,62.65
2023-04-02T16:43:07.066Z,65.61
2023-04-02T16:46:08.256Z,66.84
2023-04-02T16:48:47.752Z,68.02
2023-04-02T16:51:44.428Z,65.79
2023-04-02T16:54:25.549Z,67.65
2023-04-02T16:57:02.528Z,68.92
2023-04-02T16:59:56.399Z,68.92
2023-04-02T17:02:44.797Z,70.12
2023-04-02T17:05:51.207Z,70.85
2023-04-02T17:08:22.646Z,74.01
2023-04-02T17:10:54.745Z,74.94
2023-04-02T17:13:25.105Z,76.73
2023-04-02T17:16:21.903Z,75.61
2023-04-02T17:18:52.482Z,78.26
2023-04-02T17:21:24.854Z,78.98
2023-04-02T17:23:57.355Z,80.76
2023-04-02T17:26:34.155Z,82.03
2023-04-02T17:29:07.001Z,82.88
2023-04-02T17:31:37.616Z,84.02
2023-04-02T17:34:15.629Z,84.18
2023-04-02T17:37:10.471Z,87.19
2023-04-02T17:39:47.386Z,87.47
2023-04-02T17:42:52.781Z,87.83
2023-04-02T17:45:38.605Z,91.87
2023-04-02T17:48:26.071Z,90.69
2023-04-02T17:51:01.457Z,92.95
2023-04-02T17:53:43.534Z,94.61
2023-04-02T17:56:29.064Z,94.84
2023-04-02T17:59:14.477Z,94.33
2023-04-02T18:01:54.985Z,94.33
2023-04-02T18:04:39.380Z,94.38
2023-04-02T18:07:43.974Z,95.04
2023-04-02T18:10:22.662Z,95.47
2023-04-02T18:12:55.706Z,95.94
2023-04-02T18:15:34.372Z,97.73
2023-04-02T18:18:05.403Z,99.63
2023-04-02T18:20:39.039Z,99.48
2023-04-02T18:23:36.809Z,99.70
2023-04-02T18:26:13.237Z,100.00
2023-04-02T18:28:55.539Z,100.00
2023-04-02T18:31:40.573Z,100.00
2023-04-02T18:34:45.030Z,100.00
2023-04-02T18:37:20.195Z,100.00
2023-04-02T18:39:58.112Z,100.00
2023-04-02T18:42:47.179Z,100.00
2023-04-02T18:45:46.887Z,100.00
2023-04-02T18:48:28.571Z,100.00
2023-04-02T18:50:55.619Z,100.00
2023-04-02T18:53:25.686Z,100.00
2023-04-02T18:55:57.106Z,100.00
2023-04-02T18:58:29.975Z,100.00
2023-04-02T19:00:58.654Z,100.00
2023-04-02T19:03:28.669Z,100.00
2023-04-02T19:06:03.347Z,100.00
2023-04-02T19:08:36.432Z,100.00
2023-04-02T19:11:19.288Z,100.00
2023-04-02T19:13:48.526Z,100.00
2023-04-02T19:16:37.071Z,100.00
2023-04-02T19:19:17.554Z,100.00
2023-04-02T19:22:01.241Z,100.00
2023-04-02T19:24:55.186Z,100.00
2023-04-02T19:27:34.014Z,100.00
2023-04-02T19:30:09.327Z,100.00
2023-04-02T19:32:48.128Z,100.00
2023-04-02T19:35:28.584Z,100.00
2023-04-02T19:38:25.308Z,100.00
2023-04-02T19:41:03.866Z,100.00
2023-04-02T19:43:30.564Z,100.00
2023-04-02T19:45:57.524Z,100.00
2023-04-02T19:48:35.596Z,100.00
2023-04-02T19:51:02.182Z,100.00
2023-04-02T19:53:28.780Z,100.00
2023-04-02T19:55:57.790Z,100.00
2023-04-02T19:58:32.025Z,100.00
2023-04-02T20:00:58.937Z,100.00
2023-04-02T20:03:25.675Z,100.00
2023-04-02T20:05:53.124Z,100.00
2023-04-02T20:08:19.949Z,100.00
2023-04-02T20:10:47.525Z,100.00
2023-04-02T20:13:14.090Z,100.00
2023-04-02T20:15:41.287Z,100.00
2023-04-02T20:18:08.132Z,100.00
2023-04-02T20:20:35.037Z,100.00
2023-04-02T20:23:02.155Z,100.00
2023-04-02T20:25:28.902Z,100.00
2023-04-02T20:27:55.669Z,100.00
2023-04-02T20:30:22.285Z,100.00
2023-04-02T20:32:49.417Z,100.00
2023-04-02T20:35:16.629Z,100.00
2023-04-02T20:37:43.306Z,100.00
2023-04-02T20:40:10.992Z,100.00
2023-04-02T20:42:37.675Z,100.00
2023-04-02T20:45:06.317Z,100.00
2023-04-02T20:47:32.944Z,100.00
2023-04-02T20:49:59.540Z,100.00
2023-04-02T20:52:28.083Z,100.00
2023-04-02T20:54:54.767Z,100.00
2023-04-02T20:57:22.246Z,100.00
2023-04-02T20:59:48.997Z,100.00
2023-04-02T21:02:15.938Z,100.00
2023-04-02T21:04:42.548Z,100.00
2023-04-02T21:07:09.171Z,100.00
2023-04-02T21:09:35.865Z,100.00
2023-04-02T21:12:02.440Z,100.00
2023-04-02T21:14:31.523Z,100.00
2023-04-02T21:16:58.148Z,100.00
2023-04-02T21:19:24.786Z,100.00
2023-04-02T21:21:54.126Z,100.00
2023-04-02T21:24:20.803Z,100.00
2023-04-02T21:26:47.393Z,100.00
2023-04-02T21:29:13.995Z,100.00
2023-04-02T21:31:41.514Z,100.00
2023-04-02T21:34:09.693Z,100.00
2023-04-02T21:36:39.499Z,100.00
2023-04-02T21:39:09.226Z,100.00
2023-04-02T21:41:41.223Z,100.00
2023-04-02T21:44:09.341Z,100.00
2023-04-02T21:46:39.276Z,100.00
2023-04-02T21:49:08.201Z,100.00
2023-04-02T21:51:36.387Z,100.00
2023-04-02T21:54:03.848Z,100.00
2023-04-02T21:56:32.752Z,100.00
2023-04-02T21:59:02.032Z,100.00
2023-04-02T22:01:32.975Z,100.00
2023-04-02T22:04:02.168Z,100.00
2023-04-02T22:06:31.109Z,100.00
2023-04-02T22:09:01.068Z,100.00
2023-04-02T22:11:38.566Z,100.00
2023-04-02T22:14:06.070Z,100.00
2023-04-02T22:16:34.417Z,100.00
2023-04-02T22:19:03.553Z,100.00
2023-04-02T22:21:31.269Z,100.00
2023-04-02T22:24:05.473Z,100.00
2023-04-02T22:26:33.282Z,100.00
2023-04-02T22:29:00.508Z,100.00
2023-04-02T22:31:29.340Z,100.00
2023-04-02T22:33:57.578Z,100.00
2023-04-02T22:36:25.998Z,100.00
2023-04-02T22:38:56.858Z,100.00
2023-04-02T22:41:32.126Z,100.00
2023-04-02T22:44:03.547Z,100.00
2023-04-02T22:46:31.269Z,100.00
2023-04-02T22:48:58.442Z,100.00
2023-04-02T22:51:26.162Z,100.00
2023-04-02T22:53:54.543Z,100.00
2023-04-02T22:56:23.992Z,100.00
2023-04-02T22:58:50.802Z,100.00
2023-04-02T23:01:33.513Z,100.00
2023-04-02T23:04:00.686Z,100.00
2023-04-02T23:06:28.047Z,100.00
2023-04-02T23:08:54.759Z,100.00
2023-04-02T23:11:24.713Z,100.00
2023-04-02T23:13:53.142Z,100.00
2023-04-02T23:16:20.679Z,100.00
2023-04-02T23:18:48.491Z,100.00
2023-04-02T23:21:16.935Z,100.00
2023-04-02T23:23:46.352Z,100.00
2023-04-02T23:26:16.245Z,100.00
2023-04-02T23:28:42.904Z,100.00
2023-04-02T23:31:13.883Z,100.00
2023-04-02T23:33:40.561Z,100.00
2023-04-02T23:36:09.302Z,100.00
2023-04-02T23:38:36.303Z,100.00
2023-04-02T23:41:03.020Z,100.00
2023-04-02T23:43:29.614Z,100.00
2023-04-02T23:45:56.290Z,100.00
2023-04-02T23:48:22.905Z,100.00
2023-04-02T23:50:49.516Z,100.00
2023-04-02T23:53:16.822Z,100.00
2023-04-02T23:55:43.479Z,100.00
2023-04-02T23:58:10.160Z,100.00
